Shell Knob, MO (65747)

08:38 AM CDT del 01 Settembre 2014 (GMT -0500)
APRSWXNET Lampe MO US | Change Station
CLOSE
Current Station
Stazione meteo personale
Location: Lampe, MO
Altitudine: 956 ft
Stazioni meteo nelle vicinanze

Alt. 956 ft 36.57 °N, 93.50 °W | Updated 35 minutes ago

Coperto
Coperto
65 °F
Sembra 65 °F
N
2
Vento Variabile Vento da SE
Gusts 5.0 mph

Oggi
Massima -- | Minima -- °F
--% Possibilità di precip.
Ieri
Massima -- | Minima -- °F
Precip. -- in
6:45 AM 7:42 PM
Luna crescente, 41% visible
Pressione 30.04 in
Visibilità 10.0 miglia
Nuvole Coperto 5000 ft
Punto di rugiada 62 °F
Umidità 89%
Piovosità -9999.00 in
Spessore del manto nevoso Non disponibile.
Raggi UV 0 fuori da 12
Polline 11.40 fuori da 12
Qualità dell'aria Non disponibile.
Flu Activity Non disponibile.
METAR KFWB 011315Z AUTO 10003KT 10SM OVC050 18/17 A3004 RMK AO2 LTG DSNT W-N

More Conditions Fewer Conditions

Pressione 30.04 in
Visibilità 10.0 miglia
Nuvole Coperto 5000 ft
Punto di rugiada 62 °F
Umidità 89%
Piovosità -9999.00 in
Spessore del manto nevoso Non disponibile.
Raggi UV 0 fuori da 12
Polline 11.40 fuori da 12
Qualità dell'aria Non disponibile.
Flu Activity Non disponibile.
METAR KFWB 011315Z AUTO 10003KT 10SM OVC050 18/17 A3004 RMK AO2 LTG DSNT W-N

More Conditions Fewer Conditions

10-Day Weather Forecast

Almanac

Astronomia

Sep. 01, 2014 Alba Tramonto
Ora attuale 06:45 CDT 19:42 CDT
Crepuscolo civile 06:19 CDT 20:08 CDT
Crepuscolo nautico 05:47 CDT 20:39 CDT
Crepuscolo astronomico 05:15 CDT 21:12 CDT
Luna 13:21 CDT 23:55 CDT
Estensione della luce visibile 13h 49m
Lunghezza del giorno
12h 56m
Tomorrow will be 2m 14s shorter.
Luna crescente, 41% of the Moon is Illuminated
Oggi
Luna crescente
Set 2
Primo quarto
Set 8
Luna piena
Set 15
Ultimo quarto
Set 24
Nuovo

Gli estremi di oggi

State Highs State Lows

Community

WunderPhotos

Upload Photos

1,749,217 foto caricate!

Nearby

Profondità neve

Stazione Profondità Altitudine
Non sono state evidenziate nuove nevicate

Attività sismica

Città  Distanza Mag. Data & Ora
Non sono state riportate attività sismiche nelle vicinanze.
Minimo Magnitudo Mostrato è 2.5.

Temperature delle acque costiere

Località Temperatura
Nessun dato dalle stazioni

Stazioni meteo nelle vicinanze